Latest Weather Observations for Bradshaw-Koolendong Valley

IDD60801

Issued at 10:01 am CST Wednesday 25 May 2022 (issued every 10 minutes, with the page automatically refreshed every 10 minutes)

About weather observations | Map of weather stations | Latest weather observations for NT | Other Formats
Station Details ID: 014981 Name: BRADSHAW - KOOLENDONG VALLEY (DEFENCE) Lat: -15.19 Lon: 130.12 Height: 42.0 m
Data from the previous 72 hours. | See also: Recent months at Bradshaw-Koolendong Valley
Date/Time
CST
Temp
°C
App
Temp
°C
Dew
Point
°C
Rel
Hum
%
Delta-T
°C
Wind Press
QNH
hPa
Press
MSL
hPa
Rain since
9am
mm
Dir  Spd
km/h
Gust
km/h
Spd
kts
Gust
kts
25/10:00am 29.1 29.4 13.3 37 9.4 SSE 4 9 2 5 1016.3 - 0.0
25/09:30am 26.6 28.0 15.3 50 6.9 SSE 2 6 1 3 1016.3 - 0.0
25/09:00am 24.4 26.4 16.1 60 5.1 CALM 0 0 0 0 1016.2 - 0.0
25/08:30am 21.2 23.6 17.0 77 2.6 CALM 0 0 0 0 1016.1 - 0.0
25/08:00am 16.6 18.5 15.8 95 0.5 CALM 0 0 0 0 1016.1 - 0.0
25/07:30am 14.8 16.0 13.8 94 0.6 CALM 0 0 0 0 1015.8 - 0.0
25/07:00am 14.7 15.8 13.6 93 0.6 CALM 0 0 0 0 1015.6 - 0.0
25/06:30am 14.9 16.1 13.8 93 0.6 CALM 0 0 0 0 1015.3 - 0.0
25/06:00am 15.1 16.4 14.0 93 0.6 CALM 0 0 0 0 1015.0 - 0.0
25/05:30am 15.3 16.5 13.8 91 0.8 CALM 0 0 0 0 1014.9 - 0.0
25/05:00am 15.5 16.8 14.0 91 0.8 CALM 0 0 0 0 1014.9 - 0.0
25/04:30am 16.0 17.4 14.4 90 0.9 CALM 0 0 0 0 1015.1 - 0.0
25/04:00am 16.4 17.4 14.4 88 1.1 SSE 2 4 1 2 1014.9 - 0.0
25/03:30am 16.2 17.3 14.6 90 0.9 SSE 2 6 1 3 1014.8 - 0.0
25/03:00am 16.5 18.0 14.7 89 1.0 CALM 0 0 0 0 1014.8 - 0.0
25/02:30am 17.1 18.8 15.1 88 1.2 CALM 0 0 0 0 1015.2 - 0.0
25/02:00am 17.2 18.8 14.8 86 1.4 CALM 0 0 0 0 1015.6 - 0.0
25/01:30am 17.5 19.1 15.0 85 1.5 CALM 0 2 0 1 1015.7 - 0.0
25/01:00am 17.7 19.4 15.1 85 1.5 CALM 0 0 0 0 1015.6 - 0.0
25/12:30am 17.9 19.6 15.2 84 1.6 CALM 0 0 0 0 1015.6 - 0.0
25/12:00am 18.6 20.4 15.5 82 1.8 CALM 0 0 0 0 1015.8 - 0.0
 
Date/Time
CST
Temp
°C
App
Temp
°C
Dew
Point
°C
Rel
Hum
%
Delta-T
°C
Wind Press
QNH
hPa
Press
MSL
hPa
Rain since
9am
mm
Dir  Spd
km/h
Gust
km/h
Spd
kts
Gust
kts
24/11:30pm 18.8 20.6 15.5 81 1.9 CALM 0 0 0 0 1015.9 - 0.0
24/11:00pm 19.1 20.9 15.4 79 2.2 CALM 0 0 0 0 1015.9 - 0.0
24/10:30pm 19.6 21.5 15.7 78 2.3 CALM 0 0 0 0 1016.1 - 0.0
24/10:00pm 19.8 21.6 15.4 76 2.6 CALM 0 0 0 0 1016.0 - 0.0
24/09:30pm 20.8 22.6 15.6 72 3.1 CALM 0 0 0 0 1015.8 - 0.0
24/09:00pm 21.3 23.1 15.6 70 3.4 CALM 0 0 0 0 1015.8 - 0.0
24/08:30pm 22.2 24.0 15.5 66 4.0 CALM 0 0 0 0 1015.6 - 0.0
24/08:00pm 22.9 25.1 16.4 66 4.0 CALM 0 0 0 0 1015.2 - 0.0
24/07:30pm 24.3 26.2 15.8 59 5.2 CALM 0 0 0 0 1014.5 - 0.0
24/07:00pm 25.7 27.6 15.7 54 6.1 CALM 0 0 0 0 1014.3 - 0.0
24/06:30pm 28.9 30.6 15.1 43 8.4 CALM 0 2 0 1 1014.0 - 0.0
24/06:00pm 32.3 33.0 13.5 32 11.4 S 2 4 1 2 1013.6 - 0.0
24/05:30pm 33.4 33.9 12.9 28 12.3 SE 2 9 1 5 1013.3 - 0.0
24/05:00pm 33.8 33.2 11.6 26 13.1 S 6 9 3 5 1013.2 - 0.0
24/04:30pm 34.1 33.9 13.0 28 12.7 SW 6 11 3 6 1013.0 - 0.0
24/04:00pm 34.9 34.5 12.5 25 13.5 S 6 15 3 8 1013.0 - 0.0
24/03:30pm 34.6 34.4 11.7 25 13.6 SW 4 6 2 3 1012.8 - 0.0
24/03:00pm 34.5 33.9 11.6 25 13.6 NNE 6 11 3 6 1013.0 - 0.0
24/02:30pm 34.4 33.3 12.1 26 13.3 ESE 9 17 5 9 1013.1 - 0.0
24/02:00pm 34.3 33.8 12.0 25 13.3 ENE 6 13 3 7 1013.4 - 0.0
24/01:30pm 34.5 34.2 12.8 27 13.1 NE 6 17 3 9 1013.8 - 0.0
24/01:00pm 33.9 33.8 13.4 29 12.4 ESE 6 13 3 7 1014.2 - 0.0
24/12:30pm 33.3 33.0 13.4 30 12.0 E 7 13 4 7 1014.6 - 0.0
24/12:00pm 32.8 32.2 13.4 30 11.7 E 9 15 5 8 1015.1 - 0.0
24/11:30am 32.3 32.1 13.5 32 11.4 ENE 7 11 4 6 1015.4 - 0.0
24/11:00am 31.2 30.6 13.5 34 10.7 NE 9 15 5 8 1015.7 - 0.0
24/10:30am 30.4 30.5 12.8 34 10.4 ESE 4 9 2 5 1016.0 - 0.0
24/10:00am 28.9 28.6 11.5 34 10.0 ESE 4 6 2 3 1016.0 - 0.0
24/09:30am 27.2 27.7 11.7 38 8.9 CALM 0 4 0 2 1016.1 - 0.0
24/09:00am 25.0 26.2 13.9 50 6.5 CALM 0 0 0 0 1016.2 - 0.0
24/08:30am 21.3 22.9 14.9 67 3.8 CALM 0 0 0 0 1016.1 - 0.0
24/08:00am 16.4 18.0 14.9 91 0.9 CALM 0 0 0 0 1015.8 - 0.0
24/07:30am 14.3 15.1 12.7 90 0.9 CALM 0 0 0 0 1015.4 - 0.0
24/07:00am 14.1 14.9 12.7 91 0.8 CALM 0 0 0 0 1014.9 - 0.0
24/06:30am 13.9 14.6 12.3 90 0.9 CALM 0 0 0 0 1014.5 - 0.0
24/06:00am 13.9 14.6 12.3 90 0.9 CALM 0 0 0 0 1014.2 - 0.0
24/05:30am 14.1 14.9 12.5 90 0.9 CALM 0 0 0 0 1014.0 - 0.0
24/05:00am 14.1 14.4 12.3 89 1.0 SE 2 4 1 2 1014.0 - 0.0
24/04:30am 14.2 15.0 12.4 89 1.0 CALM 0 0 0 0 1013.9 - 0.0
24/04:00am 14.5 14.9 12.5 88 1.1 SE 2 6 1 3 1014.0 - 0.0
24/03:30am 14.3 15.1 12.5 89 1.0 CALM 0 9 0 5 1014.0 - 0.0
24/03:00am 14.6 15.4 12.6 88 1.1 CALM 0 0 0 0 1014.1 - 0.0
24/02:30am 15.1 16.0 12.8 86 1.3 CALM 0 0 0 0 1014.1 - 0.0
24/02:00am 15.2 16.0 12.7 85 1.4 CALM 0 0 0 0 1014.1 - 0.0
24/01:30am 15.6 16.5 12.9 84 1.5 CALM 0 0 0 0 1014.2 - 0.0
24/01:00am 16.0 17.0 13.1 83 1.6 CALM 0 0 0 0 1014.3 - 0.0
24/12:30am 16.3 17.3 13.2 82 1.7 CALM 0 0 0 0 1014.4 - 0.0
24/12:00am 16.6 17.6 13.3 81 1.9 CALM 0 0 0 0 1014.6 - 0.0
 
Date/Time
CST
Temp
°C
App
Temp
°C
Dew
Point
°C
Rel
Hum
%
Delta-T
°C
Wind Press
QNH
hPa
Press
MSL
hPa
Rain since
9am
mm
Dir  Spd
km/h
Gust
km/h
Spd
kts
Gust
kts
23/11:30pm 16.9 18.0 13.4 80 2.0 CALM 0 0 0 0 1014.6 - 0.0
23/11:00pm 17.4 18.5 13.5 78 2.2 CALM 0 0 0 0 1014.7 - 0.0
23/10:30pm 17.8 18.9 13.5 76 2.4 CALM 0 0 0 0 1014.7 - 0.0
23/10:00pm 18.4 19.5 13.5 73 2.8 CALM 0 0 0 0 1014.6 - 0.0
23/09:30pm 18.9 20.0 13.5 71 3.1 CALM 0 0 0 0 1014.5 - 0.0
23/09:00pm 19.5 20.7 13.7 69 3.3 CALM 0 0 0 0 1014.3 - 0.0
23/08:30pm 20.4 21.5 13.6 65 3.9 CALM 0 0 0 0 1014.1 - 0.0
23/08:00pm 21.9 22.9 13.3 58 5.0 CALM 0 0 0 0 1013.8 - 0.0
23/07:30pm 22.9 23.9 13.1 54 5.7 CALM 0 0 0 0 1013.3 - 0.0
23/07:00pm 25.3 26.6 14.1 50 6.6 CALM 0 0 0 0 1013.0 - 0.0
23/06:30pm 28.1 28.7 12.0 36 9.3 CALM 0 0 0 0 1012.6 - 0.0
23/06:00pm 31.6 31.1 10.9 28 12.0 S 4 9 2 5 1012.3 - 0.0
23/05:30pm 33.0 32.0 10.4 25 13.1 S 6 13 3 7 1011.9 - 0.0
23/05:00pm 33.9 33.0 10.5 24 13.6 S 6 13 3 7 1011.8 - 0.0
23/04:30pm 34.1 32.9 9.4 22 14.1 S 6 7 3 4 1011.9 - 0.0
23/04:00pm 34.4 33.2 9.6 22 14.2 E 6 11 3 6 1012.0 - 0.0
23/03:30pm 34.6 33.8 9.8 22 14.3 NNW 4 13 2 7 1012.0 - 0.0
23/03:00pm 34.6 34.0 9.1 21 14.6 ESE 2 6 1 3 1012.3 - 0.0
23/02:30pm 34.1 33.0 10.0 23 13.9 ENE 6 9 3 5 1012.5 - 0.0
23/02:00pm 34.5 33.7 11.0 24 13.8 ENE 6 11 3 6 1012.9 - 0.0
23/01:30pm 33.5 32.6 11.4 26 13.0 S 7 17 4 9 1013.5 - 0.0
23/01:00pm 33.2 32.0 11.7 27 12.7 SE 9 22 5 12 1014.1 - 0.0
23/12:30pm 32.2 30.8 10.8 27 12.4 E 9 15 5 8 1014.7 - 0.0
23/12:00pm 31.9 31.1 11.7 29 11.8 ESE 7 15 4 8 1015.2 - 0.0
23/11:30am 31.5 30.0 11.8 30 11.6 SE 11 20 6 11 1015.7 - 0.0
23/11:00am 31.3 30.0 11.1 29 11.7 ESE 9 22 5 12 1016.4 - 0.0
23/10:30am 30.8 29.5 11.2 30 11.3 ESE 9 17 5 9 1016.7 - 0.0
23/10:00am 29.6 28.1 10.7 31 10.8 SE 9 19 5 10 1017.0 - 0.0
23/09:30am 27.6 27.1 10.8 35 9.5 SE 4 7 2 4 1017.0 - 0.0
23/09:00am 25.3 26.1 12.5 45 7.4 CALM 0 0 0 0 1016.7 - 0.0
23/08:30am 21.0 22.5 14.6 67 3.8 CALM 0 0 0 0 1016.5 - 0.0
23/08:29am 20.9 22.5 14.8 68 3.6 CALM 0 0 0 0 1016.4 - 0.0
23/08:00am 15.8 17.1 14.0 89 1.0 CALM 0 0 0 0 1016.1 - 0.0
23/07:30am 13.6 14.3 12.2 91 0.8 CALM 0 0 0 0 1015.7 - 0.0
23/07:00am 13.6 14.1 11.7 88 1.0 CALM 0 0 0 0 1015.3 - 0.0
23/06:30am 13.4 14.0 11.8 90 0.9 CALM 0 0 0 0 1015.1 - 0.0
23/06:00am 13.5 14.1 11.9 90 0.9 CALM 0 0 0 0 1014.8 - 0.0
23/05:30am 13.7 14.4 12.1 90 0.9 CALM 0 0 0 0 1014.5 - 0.0
23/05:00am 13.7 14.4 12.1 90 0.9 CALM 0 0 0 0 1014.2 - 0.0
23/04:30am 13.9 14.6 12.1 89 1.0 CALM 0 0 0 0 1014.2 - 0.0
23/04:00am 13.8 14.4 11.8 88 1.1 CALM 0 0 0 0 1014.1 - 0.0
23/03:30am 14.0 14.6 11.9 87 1.1 CALM 0 0 0 0 1014.1 - 0.0
23/03:00am 14.2 14.9 12.1 87 1.1 CALM 0 0 0 0 1014.1 - 0.0
23/02:30am 14.6 15.3 12.1 85 1.4 CALM 0 0 0 0 1014.2 - 0.0
23/02:00am 14.7 15.4 12.2 85 1.4 CALM 0 0 0 0 1014.3 - 0.0
23/01:30am 15.1 15.9 12.4 84 1.5 CALM 0 2 0 1 1014.3 - 0.0
23/01:00am 15.5 16.2 12.3 81 1.8 CALM 0 0 0 0 1014.3 - 0.0
23/12:30am 16.2 17.2 13.1 82 1.7 CALM 0 2 0 1 1014.3 - 0.0
23/12:00am 16.0 16.8 12.7 81 1.8 CALM 0 0 0 0 1014.3 - 0.0
 
Date/Time
CST
Temp
°C
App
Temp
°C
Dew
Point
°C
Rel
Hum
%
Delta-T
°C
Wind Press
QNH
hPa
Press
MSL
hPa
Rain since
9am
mm
Dir  Spd
km/h
Gust
km/h
Spd
kts
Gust
kts
22/11:30pm 16.4 16.8 12.6 78 2.1 SSE 2 7 1 4 1014.4 - 0.0
22/11:00pm 17.1 17.8 12.2 73 2.7 CALM 0 0 0 0 1014.4 - 0.0
22/10:30pm 17.6 18.6 13.1 75 2.5 CALM 0 0 0 0 1014.4 - 0.0
22/10:00pm 18.2 19.3 13.5 74 2.7 CALM 0 0 0 0 1014.5 - 0.0
22/09:30pm 18.7 19.8 13.6 72 2.9 CALM 0 0 0 0 1014.4 - 0.0
22/09:00pm 19.4 20.5 13.6 69 3.3 CALM 0 0 0 0 1014.1 - 0.0
22/08:30pm 20.4 21.7 14.1 67 3.7 CALM 0 2 0 1 1013.8 - 0.0
22/08:00pm 21.4 22.5 13.6 61 4.5 CALM 0 0 0 0 1013.5 - 0.0
22/07:30pm 22.6 23.8 13.9 58 5.1 CALM 0 2 0 1 1013.1 - 0.0
22/07:00pm 24.1 25.5 14.5 55 5.7 CALM 0 4 0 2 1012.8 - 0.0
22/06:30pm 27.4 28.2 12.6 40 8.6 CALM 0 0 0 0 1012.2 - 0.0
22/06:00pm 31.3 31.7 11.1 29 11.7 CALM 0 0 0 0 1011.9 - 0.0
22/05:30pm 32.3 31.2 9.8 25 12.9 S 6 13 3 7 1011.7 - 0.0
22/05:00pm 32.7 30.8 8.9 23 13.4 SSE 9 17 5 9 1011.5 - 0.0
22/04:30pm 33.6 32.4 9.6 23 13.7 SSE 6 9 3 5 1011.3 - 0.0
22/04:00pm 33.5 31.9 8.9 22 13.9 SE 7 15 4 8 1011.5 - 0.0
22/03:30pm 33.4 32.0 9.4 23 13.7 SE 7 19 4 10 1011.7 - 0.0
22/03:00pm 33.3 31.3 8.7 22 13.9 S 9 17 5 9 1011.9 - 0.0
22/02:30pm 33.4 31.6 9.4 23 13.7 SE 9 19 5 10 1012.3 - 0.0
22/02:00pm 33.1 31.4 9.8 24 13.3 SE 9 19 5 10 1013.0 - 0.0
22/01:30pm 32.7 30.8 8.9 23 13.4 SE 9 19 5 10 1013.5 - 0.0
22/01:00pm 32.7 31.4 10.1 25 13.0 SE 7 17 4 9 1014.0 - 0.0
22/12:30pm 32.6 31.7 11.2 27 12.5 ESE 7 15 4 8 1014.6 - 0.0
22/12:00pm 32.1 31.0 11.8 29 11.9 ESE 9 17 5 9 1015.2 - 0.0
22/11:30am 30.9 29.4 11.8 31 11.2 SE 11 22 6 12 1015.7 - 0.0
22/11:00am 31.3 30.4 12.6 31 11.1 ESE 9 17 5 9 1016.2 - 0.0
22/10:30am 30.4 29.0 12.3 33 10.6 ESE 11 17 6 9 1016.5 - 0.0

Other formats

Comma delimited format used in spreadsheet applications
http://www.bom.gov.au/fwo/IDD60801/IDD60801.94222.axf

JavaScript Object Notation format (JSON) in row-major order
http://www.bom.gov.au/fwo/IDD60801/IDD60801.94222.json

Data quality

Most of these data are generated automatically and are frequently updated. Quality checks on data are not normally performed. It is possible for incorrect values to appear. Refer to information at About Latest Weather Observations and please check the disclaimer before using these data.